Time;durP1;ratioP1;P1;durP2;ratioP2;P2;SDS_P1;SDS_P2;PMS_P1;PMS_P2;Temp;Humidity;BMP_temperature;BMP_pressure;BME280_temperature;BME280_humidity;BME280_pressure;Samples;Min_cycle;Max_cycle;Signal;HPM_P1;HPM_P2
2021/09/04 00:02:20;;;;;;;9.07;8.17;;;13.10;99.90;;;;;;5070630;28;20194;-88
2021/09/04 00:04:45;;;;;;;8.53;7.63;;;13.10;99.90;;;;;;5039622;28;20527;-88
2021/09/04 00:07:11;;;;;;;8.83;7.93;;;13.10;99.90;;;;;;5058019;28;20579;-89
2021/09/04 00:09:37;;;;;;;8.00;7.20;;;13.00;99.90;;;;;;5030144;28;20188;-88
2021/09/04 00:12:04;;;;;;;7.60;6.90;;;13.00;99.90;;;;;;5052673;28;20203;-88
2021/09/04 00:14:30;;;;;;;9.87;8.20;;;13.00;99.90;;;;;;5052834;28;20204;-88
2021/09/04 00:16:55;;;;;;;9.70;7.53;;;13.00;99.90;;;;;;5074088;28;20430;-87
2021/09/04 00:19:21;;;;;;;8.43;7.67;;;12.90;99.90;;;;;;5054952;28;20531;-87
2021/09/04 00:21:47;;;;;;;9.90;7.73;;;12.80;99.90;;;;;;5052192;28;20202;-87
2021/09/04 00:24:12;;;;;;;9.73;7.90;;;12.80;99.90;;;;;;5054755;28;20655;-88
2021/09/04 00:26:38;;;;;;;9.03;7.87;;;12.80;99.90;;;;;;5054869;28;20797;-88
2021/09/04 00:29:04;;;;;;;8.43;7.63;;;12.70;99.90;;;;;;5056998;28;20187;-88
2021/09/04 00:31:29;;;;;;;8.70;7.47;;;12.60;99.90;;;;;;5036223;28;20718;-87
2021/09/04 00:33:55;;;;;;;8.80;8.00;;;12.60;99.90;;;;;;5041899;28;20324;-88
2021/09/04 00:36:21;;;;;;;9.50;8.60;;;12.60;99.90;;;;;;5073677;28;20227;-88
2021/09/04 00:38:46;;;;;;;8.43;7.57;;;12.60;99.90;;;;;;5040973;28;20452;-88
2021/09/04 00:41:21;;;;;;;9.30;8.40;;;12.60;99.90;;;;;;5056312;28;20184;-88
2021/09/04 00:43:48;;;;;;;8.57;7.73;;;12.50;99.90;;;;;;5056853;28;20198;-87
2021/09/04 00:46:14;;;;;;;9.10;8.20;;;12.50;99.90;;;;;;5056324;28;20450;-87
2021/09/04 00:48:41;;;;;;;8.87;7.97;;;12.40;99.90;;;;;;5035607;28;20581;-88
2021/09/04 00:51:08;;;;;;;8.90;7.97;;;12.40;99.90;;;;;;5037089;28;20870;-87
2021/09/04 00:53:35;;;;;;;8.50;7.70;;;12.40;99.90;;;;;;5041108;28;20437;-88
2021/09/04 00:56:00;;;;;;;8.83;8.03;;;12.30;99.90;;;;;;5069694;28;20196;-88
2021/09/04 00:58:26;;;;;;;8.73;7.83;;;12.30;99.90;;;;;;5057435;28;20484;-88
2021/09/04 01:00:53;;;;;;;10.97;9.80;;;12.30;99.90;;;;;;5057506;28;20278;-88
2021/09/04 01:03:19;;;;;;;10.30;9.30;;;12.30;99.90;;;;;;5036529;28;20619;-88
2021/09/04 01:05:49;;;;;;;8.80;8.00;;;12.30;99.90;;;;;;5055447;28;21127;-87
2021/09/04 01:08:15;;;;;;;9.80;8.07;;;12.20;99.90;;;;;;5037539;28;20684;-88
2021/09/04 01:10:41;;;;;;;9.23;8.03;;;12.30;99.90;;;;;;5058914;28;20533;-87
2021/09/04 01:13:07;;;;;;;8.53;7.60;;;12.30;99.90;;;;;;5056397;28;20859;-87
2021/09/04 01:15:33;;;;;;;9.30;8.00;;;12.20;99.90;;;;;;5054329;28;20830;-87
2021/09/04 01:18:05;;;;;;;10.77;9.67;;;12.10;99.90;;;;;;5032813;28;20318;-87
2021/09/04 01:20:32;;;;;;;10.63;9.53;;;12.00;99.90;;;;;;5052876;28;22469;-87
2021/09/04 01:22:57;;;;;;;9.60;8.67;;;12.10;99.90;;;;;;5056488;28;20611;-87
2021/09/04 01:25:26;;;;;;;9.70;8.20;;;12.10;99.90;;;;;;5069925;28;20488;-87
2021/09/04 01:27:52;;;;;;;11.10;10.00;;;12.10;99.90;;;;;;5054373;28;20244;-87
2021/09/04 01:30:18;;;;;;;10.00;9.00;;;12.10;99.90;;;;;;5037960;28;20438;-87
2021/09/04 01:32:44;;;;;;;10.80;9.23;;;12.00;99.90;;;;;;5053580;28;20500;-87
2021/09/04 01:35:12;;;;;;;8.33;7.53;;;12.00;99.90;;;;;;5042594;28;21641;-87
2021/09/04 01:37:38;;;;;;;9.30;8.40;;;12.00;99.90;;;;;;5039150;28;20941;-87
2021/09/04 01:40:11;;;;;;;9.33;8.43;;;11.90;99.90;;;;;;5035536;28;20537;-87
2021/09/04 01:42:37;;;;;;;9.93;7.87;;;12.00;99.90;;;;;;5043520;28;20532;-87
2021/09/04 01:45:03;;;;;;;11.33;8.60;;;12.10;99.90;;;;;;5044682;28;20448;-88
2021/09/04 01:47:29;;;;;;;10.53;9.43;;;12.00;99.90;;;;;;5056964;28;20580;-87
2021/09/04 01:49:56;;;;;;;11.30;9.13;;;11.80;99.90;;;;;;5059839;28;20471;-88
2021/09/04 01:52:22;;;;;;;10.27;9.27;;;11.80;99.90;;;;;;5043801;28;20200;-86
2021/09/04 01:54:51;;;;;;;9.93;8.93;;;11.90;99.90;;;;;;5050270;28;20440;-86
2021/09/04 01:57:18;;;;;;;11.67;10.47;;;11.90;99.90;;;;;;5058471;28;20441;-87
2021/09/04 01:59:45;;;;;;;10.17;9.17;;;11.80;99.90;;;;;;5042975;28;20454;-87
2021/09/04 02:02:11;;;;;;;10.40;9.10;;;11.80;99.90;;;;;;5042149;28;20450;-87
2021/09/04 02:04:36;;;;;;;9.80;8.87;;;11.80;99.90;;;;;;5047860;28;20964;-87
2021/09/04 02:07:03;;;;;;;9.10;8.20;;;12.00;99.90;;;;;;5044902;28;20194;-87
2021/09/04 02:09:29;;;;;;;9.40;8.57;;;12.10;99.90;;;;;;5057512;28;20603;-86
2021/09/04 02:11:55;;;;;;;12.30;11.20;;;12.20;99.90;;;;;;5055799;28;20438;-87
2021/09/04 02:14:21;;;;;;;12.23;11.10;;;12.40;99.90;;;;;;5059218;28;20203;-87
2021/09/04 02:16:47;;;;;;;13.87;12.47;;;12.40;99.90;;;;;;5059858;28;20797;-87
2021/09/04 02:19:12;;;;;;;14.67;13.20;;;12.30;99.90;;;;;;5059680;28;20211;-87
2021/09/04 02:21:38;;;;;;;14.37;12.90;;;12.30;99.90;;;;;;5069822;28;20283;-86
2021/09/04 02:24:04;;;;;;;13.93;11.87;;;12.20;99.90;;;;;;5046088;28;20191;-87
2021/09/04 02:26:30;;;;;;;13.53;12.10;;;12.20;99.90;;;;;;5075732;28;20184;-87
2021/09/04 02:28:56;;;;;;;11.80;10.60;;;12.20;99.90;;;;;;5055167;28;20195;-87
2021/09/04 02:31:24;;;;;;;11.33;10.23;;;12.20;99.90;;;;;;5057418;28;20196;-87
2021/09/04 02:33:54;;;;;;;11.40;10.17;;;12.30;99.90;;;;;;5038351;28;20473;-87
2021/09/04 02:36:21;;;;;;;10.33;9.33;;;12.30;99.90;;;;;;5063301;28;20483;-87
2021/09/04 02:38:47;;;;;;;11.50;8.90;;;12.20;99.90;;;;;;5043498;28;20496;-87
2021/09/04 02:41:15;;;;;;;9.83;8.83;;;12.20;99.90;;;;;;5058959;28;20836;-87
2021/09/04 02:43:43;;;;;;;9.83;8.57;;;12.10;99.90;;;;;;5036729;28;20547;-88
2021/09/04 02:46:09;;;;;;;9.40;8.30;;;12.10;99.90;;;;;;5043798;28;20939;-88
2021/09/04 02:48:36;;;;;;;10.10;9.10;;;12.00;99.90;;;;;;5074154;28;20458;-88
2021/09/04 02:51:02;;;;;;;9.67;8.70;;;12.10;99.90;;;;;;5060281;28;20187;-87
2021/09/04 02:53:28;;;;;;;11.20;8.87;;;12.00;99.90;;;;;;5041609;28;20454;-88
2021/09/04 02:55:54;;;;;;;9.57;7.80;;;12.00;99.90;;;;;;5042502;28;20441;-86
2021/09/04 02:58:19;;;;;;;10.03;8.87;;;12.10;99.90;;;;;;5075717;28;20587;-87
2021/09/04 03:00:45;;;;;;;8.83;7.93;;;12.10;99.90;;;;;;5055084;28;20458;-87
2021/09/04 03:03:11;;;;;;;9.57;8.63;;;12.00;99.90;;;;;;5057184;28;20196;-87
2021/09/04 03:05:37;;;;;;;10.97;8.53;;;12.00;99.90;;;;;;5058882;28;20188;-88
2021/09/04 03:08:03;;;;;;;10.57;8.07;;;12.00;99.90;;;;;;5058276;28;20278;-88
2021/09/04 03:10:29;;;;;;;8.90;8.00;;;12.10;99.90;;;;;;5040220;28;20185;-87
2021/09/04 03:12:56;;;;;;;9.93;8.20;;;12.10;99.90;;;;;;5057934;28;20537;-87
2021/09/04 03:15:22;;;;;;;9.27;8.27;;;12.00;99.90;;;;;;5057701;28;21152;-87
2021/09/04 03:17:48;;;;;;;9.50;8.60;;;12.00;99.90;;;;;;5039665;28;20479;-87
2021/09/04 03:20:14;;;;;;;9.40;8.40;;;12.10;99.90;;;;;;5073596;28;20193;-87
2021/09/04 03:22:40;;;;;;;10.23;9.27;;;12.10;99.90;;;;;;5069945;28;20450;-87
2021/09/04 03:25:06;;;;;;;9.93;9.03;;;12.20;99.90;;;;;;5056980;28;20207;-87
2021/09/04 03:27:32;;;;;;;10.40;9.13;;;12.20;99.90;;;;;;5071349;28;20628;-87
2021/09/04 03:30:01;;;;;;;10.93;8.60;;;12.10;99.90;;;;;;5048902;28;20473;-87
2021/09/04 03:32:27;;;;;;;10.53;8.50;;;12.10;99.90;;;;;;5074227;28;20489;-87
2021/09/04 03:34:55;;;;;;;13.50;8.97;;;12.20;99.90;;;;;;5037925;28;20951;-86
2021/09/04 03:37:21;;;;;;;12.20;9.60;;;12.00;99.90;;;;;;5070652;28;20220;-86
2021/09/04 03:39:46;;;;;;;9.60;8.60;;;12.10;99.90;;;;;;5057717;28;20485;-86
2021/09/04 03:42:12;;;;;;;10.90;9.90;;;12.10;99.90;;;;;;5039211;28;21808;-87
2021/09/04 03:44:38;;;;;;;10.07;9.03;;;12.10;99.90;;;;;;5059991;28;20560;-87
2021/09/04 03:47:04;;;;;;;10.97;9.87;;;12.10;99.90;;;;;;5061360;28;20645;-87
2021/09/04 03:49:30;;;;;;;10.30;8.50;;;12.00;99.90;;;;;;5056889;28;20191;-87
2021/09/04 03:51:56;;;;;;;9.57;8.67;;;12.00;99.90;;;;;;5071474;28;20433;-87
2021/09/04 03:54:21;;;;;;;11.57;10.37;;;12.00;99.90;;;;;;5063894;28;20450;-87
2021/09/04 03:56:47;;;;;;;10.70;9.80;;;12.20;99.90;;;;;;5054549;28;20274;-87
2021/09/04 03:59:13;;;;;;;10.13;9.13;;;12.10;99.90;;;;;;5040831;28;20273;-88
2021/09/04 04:01:38;;;;;;;10.27;9.03;;;12.00;99.90;;;;;;5054812;28;20200;-87
2021/09/04 04:04:04;;;;;;;9.83;8.77;;;12.10;99.90;;;;;;5037440;28;20196;-87
2021/09/04 04:06:30;;;;;;;11.00;8.73;;;12.00;99.90;;;;;;5040784;28;20194;-87
2021/09/04 04:08:56;;;;;;;11.53;10.10;;;12.00;99.90;;;;;;5057082;28;20191;-87
2021/09/04 04:11:22;;;;;;;10.37;9.27;;;12.00;99.90;;;;;;5038481;28;20191;-87
2021/09/04 04:13:47;;;;;;;10.83;9.30;;;11.90;99.90;;;;;;5040458;28;20449;-87
2021/09/04 04:16:13;;;;;;;12.10;10.13;;;11.80;99.90;;;;;;5040311;28;20454;-86
2021/09/04 04:18:39;;;;;;;12.40;9.97;;;11.80;99.90;;;;;;5079337;28;21008;-87
2021/09/04 04:21:05;;;;;;;10.97;9.10;;;11.80;99.90;;;;;;5057084;28;20187;-86
2021/09/04 04:23:31;;;;;;;10.70;9.70;;;11.80;99.90;;;;;;5051970;28;20623;-87
2021/09/04 04:25:59;;;;;;;10.30;9.30;;;11.70;99.90;;;;;;5056196;28;20967;-86
2021/09/04 04:28:25;;;;;;;11.43;9.93;;;11.60;99.90;;;;;;5063923;28;20207;-87
2021/09/04 04:30:51;;;;;;;11.43;10.23;;;11.70;99.90;;;;;;5073543;28;20447;-86
2021/09/04 04:33:17;;;;;;;10.50;9.27;;;11.70;99.90;;;;;;5064918;28;20538;-86
2021/09/04 04:35:43;;;;;;;13.13;9.63;;;11.70;99.90;;;;;;5061343;28;20195;-86
2021/09/04 04:38:08;;;;;;;12.43;10.50;;;11.80;99.90;;;;;;5032145;28;20867;-86
2021/09/04 04:40:34;;;;;;;12.10;10.93;;;11.80;99.90;;;;;;5037305;28;20462;-87
2021/09/04 04:43:00;;;;;;;11.23;10.10;;;11.80;99.90;;;;;;5046076;28;20193;-86
2021/09/04 04:45:26;;;;;;;12.67;11.13;;;11.80;99.90;;;;;;5045607;28;20191;-86
2021/09/04 04:47:51;;;;;;;13.10;11.20;;;11.90;99.90;;;;;;5031986;28;20298;-87
2021/09/04 04:50:18;;;;;;;12.67;10.87;;;12.00;99.90;;;;;;5032006;28;20207;-86
2021/09/04 04:52:44;;;;;;;12.43;11.20;;;12.00;99.90;;;;;;5029971;28;20208;-87
2021/09/04 04:55:11;;;;;;;12.43;10.47;;;12.00;99.90;;;;;;5047804;28;20479;-87
2021/09/04 04:57:37;;;;;;;13.67;10.90;;;12.10;99.90;;;;;;5031678;28;20445;-86
2021/09/04 05:00:03;;;;;;;11.97;10.73;;;12.10;99.90;;;;;;5045092;28;20450;-87
2021/09/04 05:02:29;;;;;;;13.10;11.10;;;12.00;99.90;;;;;;5030635;28;20188;-86
2021/09/04 05:04:54;;;;;;;17.90;12.33;;;11.90;99.90;;;;;;5030690;28;20531;-86
2021/09/04 05:07:20;;;;;;;12.67;11.40;;;11.90;99.90;;;;;;5043581;28;20172;-87
2021/09/04 05:09:46;;;;;;;11.90;10.70;;;11.90;99.90;;;;;;5033991;28;20202;-87
2021/09/04 05:12:11;;;;;;;12.70;11.40;;;11.90;99.90;;;;;;5027778;28;20192;-87
2021/09/04 05:14:37;;;;;;;12.03;10.70;;;11.90;99.90;;;;;;5033189;28;20192;-87
2021/09/04 05:17:03;;;;;;;12.33;9.77;;;11.90;99.90;;;;;;5047483;28;20272;-87
2021/09/04 05:19:30;;;;;;;13.40;10.80;;;12.00;99.90;;;;;;5035999;28;20689;-87
2021/09/04 05:21:56;;;;;;;11.40;10.30;;;12.00;99.90;;;;;;5031735;28;20189;-86
2021/09/04 05:24:22;;;;;;;16.10;11.27;;;12.00;99.90;;;;;;5050084;28;20450;-86
2021/09/04 05:26:48;;;;;;;11.97;10.87;;;11.90;99.90;;;;;;5036164;28;20441;-87
2021/09/04 05:29:13;;;;;;;11.43;10.33;;;11.90;99.90;;;;;;5034036;28;20330;-87
2021/09/04 05:31:39;;;;;;;11.60;10.40;;;12.00;99.90;;;;;;5037083;28;21145;-86
2021/09/04 05:34:05;;;;;;;11.63;10.43;;;12.10;99.90;;;;;;5048782;28;20188;-87
2021/09/04 05:36:30;;;;;;;11.37;10.20;;;12.10;99.90;;;;;;5064350;28;20199;-88
2021/09/04 05:38:56;;;;;;;11.10;10.00;;;12.10;99.90;;;;;;5033720;28;20586;-87
2021/09/04 05:41:24;;;;;;;12.60;11.20;;;12.20;99.90;;;;;;5031520;28;20187;-86
2021/09/04 05:43:50;;;;;;;14.87;12.10;;;12.20;99.90;;;;;;5048000;28;20634;-87
2021/09/04 05:46:15;;;;;;;14.53;11.30;;;12.20;99.90;;;;;;5049736;28;20449;-87
2021/09/04 05:48:41;;;;;;;12.37;11.17;;;12.20;99.90;;;;;;5038509;28;20191;-87
2021/09/04 05:51:07;;;;;;;11.63;10.53;;;12.30;99.90;;;;;;5034867;28;20870;-87
2021/09/04 05:53:32;;;;;;;11.07;9.97;;;12.40;99.90;;;;;;5047781;28;20200;-88
2021/09/04 05:55:58;;;;;;;12.53;10.87;;;12.50;99.90;;;;;;5032360;28;20195;-88
2021/09/04 05:58:24;;;;;;;13.10;10.93;;;12.50;99.90;;;;;;5035261;28;20221;-86
2021/09/04 06:00:51;;;;;;;12.07;10.70;;;12.70;99.90;;;;;;5043263;28;20208;-89
2021/09/04 06:03:20;;;;;;;11.60;10.40;;;12.70;99.90;;;;;;5033726;28;20694;-89
2021/09/04 06:05:50;;;;;;;11.27;10.27;;;12.70;99.90;;;;;;5046008;28;20549;-88
2021/09/04 06:08:18;;;;;;;11.17;10.07;;;12.80;99.90;;;;;;5044166;28;20513;-90
2021/09/04 06:10:48;;;;;;;12.10;10.83;;;12.90;99.90;;;;;;5043247;28;20513;-88
2021/09/04 06:13:20;;;;;;;11.17;9.93;;;13.10;99.90;;;;;;5057475;28;20449;-87
2021/09/04 06:15:46;;;;;;;12.03;10.57;;;13.10;99.90;;;;;;5057318;28;20453;-88
2021/09/04 06:18:15;;;;;;;11.17;10.07;;;13.10;99.90;;;;;;5040091;28;20473;-89
2021/09/04 06:20:41;;;;;;;10.77;9.73;;;13.10;99.90;;;;;;5050359;28;21275;-89
2021/09/04 06:23:07;;;;;;;10.90;9.80;;;13.20;99.90;;;;;;5045231;28;20421;-89
2021/09/04 06:25:37;;;;;;;11.20;10.03;;;13.30;99.90;;;;;;5052516;28;20445;-88
2021/09/04 06:28:02;;;;;;;11.53;9.87;;;13.40;99.90;;;;;;5037384;28;20446;-88
2021/09/04 06:30:28;;;;;;;11.37;10.27;;;13.40;99.90;;;;;;5057723;28;20449;-89
2021/09/04 06:32:54;;;;;;;11.40;10.30;;;13.60;99.90;;;;;;5072856;28;20294;-89
2021/09/04 06:35:23;;;;;;;11.80;10.60;;;13.70;99.90;;;;;;5042461;28;20194;-89
2021/09/04 06:37:52;;;;;;;11.70;10.47;;;13.70;99.90;;;;;;5071538;28;20203;-87
2021/09/04 06:40:21;;;;;;;12.27;10.97;;;13.60;99.90;;;;;;5055430;28;20465;-88
2021/09/04 06:42:47;;;;;;;11.50;10.40;;;13.80;99.90;;;;;;5057461;28;20449;-87
2021/09/04 06:45:18;;;;;;;11.60;10.37;;;14.00;99.90;;;;;;5037734;28;20505;-86
2021/09/04 06:47:44;;;;;;;12.13;10.93;;;14.10;99.90;;;;;;5053841;28;20537;-89
2021/09/04 06:50:10;;;;;;;12.80;11.23;;;14.10;99.90;;;;;;5038084;28;20891;-89
2021/09/04 06:52:36;;;;;;;12.53;11.33;;;14.10;99.90;;;;;;5061601;28;20211;-89
2021/09/04 06:55:08;;;;;;;12.33;11.13;;;14.20;99.90;;;;;;5040459;28;20460;-88
2021/09/04 06:57:36;;;;;;;12.67;11.47;;;14.20;99.90;;;;;;5059534;28;20422;-88
2021/09/04 07:00:04;;;;;;;12.90;11.70;;;14.30;99.90;;;;;;5056583;28;20442;-88
2021/09/04 07:02:30;;;;;;;12.07;10.93;;;14.30;99.90;;;;;;5057572;28;20438;-89
2021/09/04 07:04:56;;;;;;;13.13;11.80;;;14.40;99.90;;;;;;5057221;28;20964;-88
2021/09/04 07:07:24;;;;;;;11.93;10.83;;;14.50;99.90;;;;;;5059692;28;20445;-88
2021/09/04 07:09:50;;;;;;;13.30;10.57;;;14.60;99.90;;;;;;5042340;28;20703;-90
2021/09/04 07:12:18;;;;;;;12.47;11.23;;;14.70;99.90;;;;;;5043757;28;20434;-89
2021/09/04 07:14:44;;;;;;;13.30;12.03;;;14.90;99.90;;;;;;5029877;28;20460;-89
2021/09/04 07:17:10;;;;;;;12.60;11.30;;;15.00;99.90;;;;;;5071016;28;20426;-88
2021/09/04 07:19:36;;;;;;;14.40;12.90;;;15.10;99.90;;;;;;5059813;28;20220;-89
2021/09/04 07:22:02;;;;;;;11.77;10.53;;;15.30;99.90;;;;;;5054126;28;20822;-89
2021/09/04 07:24:30;;;;;;;12.90;11.63;;;15.20;99.90;;;;;;5058318;28;20449;-90
2021/09/04 07:27:03;;;;;;;11.63;10.53;;;15.30;99.90;;;;;;5038868;28;21327;-90
2021/09/04 07:29:30;;;;;;;12.00;10.80;;;15.30;99.90;;;;;;5056800;28;20492;-90
2021/09/04 07:31:56;;;;;;;11.80;10.67;;;15.30;99.90;;;;;;5033264;28;20453;-89
2021/09/04 07:34:24;;;;;;;11.93;10.83;;;15.30;99.90;;;;;;5055087;28;20819;-88
2021/09/04 07:36:52;;;;;;;11.43;10.23;;;15.30;99.90;;;;;;5060309;28;20187;-93
2021/09/04 07:39:18;;;;;;;12.17;10.57;;;15.60;99.90;;;;;;5058307;28;20996;-91
2021/09/04 07:41:44;;;;;;;13.00;10.10;;;15.60;99.90;;;;;;5039899;28;20515;-94
2021/09/04 07:44:13;;;;;;;11.20;10.00;;;15.70;99.90;;;;;;5037932;28;20507;-93
2021/09/04 07:46:38;;;;;;;11.00;9.90;;;15.90;99.90;;;;;;5053851;28;20454;-92
2021/09/04 07:49:04;;;;;;;11.30;10.20;;;16.10;99.90;;;;;;5054143;28;20442;-86
2021/09/04 07:51:33;;;;;;;10.13;9.20;;;16.10;99.90;;;;;;5046847;28;20209;-89
2021/09/04 07:54:05;;;;;;;11.27;10.17;;;16.40;99.90;;;;;;5044722;28;20226;-87
2021/09/04 07:56:31;;;;;;;10.93;9.83;;;16.50;99.90;;;;;;5028594;28;20438;-87
2021/09/04 07:58:59;;;;;;;10.33;9.37;;;16.80;99.90;;;;;;5046341;28;21057;-88
2021/09/04 08:01:25;;;;;;;10.33;9.37;;;16.90;99.90;;;;;;5029083;28;20206;-90
2021/09/04 08:03:51;;;;;;;11.13;9.80;;;17.00;99.90;;;;;;5045596;28;20648;-89
2021/09/04 08:06:16;;;;;;;10.50;9.43;;;17.10;99.90;;;;;;5039913;28;20241;-90
2021/09/04 08:08:42;;;;;;;10.67;9.57;;;17.20;99.90;;;;;;5027868;28;20321;-88
2021/09/04 08:11:15;;;;;;;12.63;10.30;;;17.30;99.90;;;;;;5047670;28;20198;-88
2021/09/04 08:13:41;;;;;;;10.33;9.40;;;17.40;99.90;;;;;;5028731;28;20196;-89
2021/09/04 08:16:13;;;;;;;10.40;9.30;;;17.30;99.90;;;;;;5029974;28;20466;-89
2021/09/04 08:18:39;;;;;;;11.07;9.87;;;17.50;99.90;;;;;;5029617;28;20713;-89
2021/09/04 08:21:05;;;;;;;10.60;9.60;;;17.70;99.90;;;;;;5033551;28;20446;-89
2021/09/04 08:23:30;;;;;;;9.43;8.53;;;18.00;99.90;;;;;;5046055;28;20210;-89
2021/09/04 08:25:56;;;;;;;10.70;9.70;;;18.20;99.90;;;;;;5046115;28;20196;-89
2021/09/04 08:28:22;;;;;;;10.83;9.10;;;18.40;99.90;;;;;;5047949;28;20187;-88
2021/09/04 08:30:48;;;;;;;9.77;8.80;;;18.40;99.90;;;;;;5030817;28;20833;-88
2021/09/04 08:33:14;;;;;;;10.43;9.40;;;18.50;99.90;;;;;;5049713;28;20613;-88
2021/09/04 08:35:40;;;;;;;9.77;8.87;;;18.40;99.90;;;;;;5035190;28;21325;-88
2021/09/04 08:38:09;;;;;;;9.10;8.30;;;18.20;99.90;;;;;;5033507;28;20614;-88
2021/09/04 08:40:40;;;;;;;9.27;8.37;;;18.40;99.90;;;;;;5046609;28;20634;-89
2021/09/04 08:43:08;;;;;;;9.73;8.83;;;18.80;99.90;;;;;;5031146;28;20446;-90
2021/09/04 08:45:34;;;;;;;9.53;8.63;;;19.00;99.90;;;;;;5049781;28;20495;-89
2021/09/04 08:48:01;;;;;;;9.50;8.70;;;19.40;99.90;;;;;;5032474;28;20747;-88
2021/09/04 08:50:27;;;;;;;8.73;7.60;;;19.70;99.90;;;;;;5036676;28;20203;-91
2021/09/04 08:52:53;;;;;;;10.00;9.00;;;19.90;99.90;;;;;;5038669;28;20719;-88
2021/09/04 08:55:20;;;;;;;8.67;7.90;;;20.00;99.90;;;;;;5040321;28;20538;-90
2021/09/04 08:57:46;;;;;;;8.90;8.10;;;20.20;99.90;;;;;;5027779;28;20450;-90
2021/09/04 09:00:12;;;;;;;9.83;8.00;;;20.30;99.90;;;;;;5056284;28;21273;-90
2021/09/04 09:02:43;;;;;;;9.40;8.50;;;20.40;99.90;;;;;;5024390;28;20242;-89
2021/09/04 09:05:10;;;;;;;8.83;7.93;;;20.60;99.90;;;;;;5041625;28;21141;-88
2021/09/04 09:07:41;;;;;;;8.77;7.83;;;20.60;99.90;;;;;;5043637;28;20442;-89
2021/09/04 09:10:22;;;;;;;8.03;7.27;;;20.60;99.90;;;;;;5032668;28;20889;-91
2021/09/04 09:12:58;;;;;;;7.40;6.70;;;20.80;99.90;;;;;;5043757;28;20437;-89
2021/09/04 09:15:26;;;;;;;8.93;7.97;;;20.90;99.90;;;;;;5063283;28;20445;-88
2021/09/04 09:18:07;;;;;;;8.17;7.20;;;20.70;99.90;;;;;;5032779;28;20469;-91
2021/09/04 09:20:34;;;;;;;7.60;6.87;;;20.90;99.90;;;;;;5026590;28;21314;-88
2021/09/04 09:23:13;;;;;;;8.73;7.80;;;21.20;99.90;;;;;;5044688;28;20463;-87
2021/09/04 09:25:41;;;;;;;8.57;7.33;;;21.30;99.90;;;;;;5041941;28;20535;-87
2021/09/04 09:28:14;;;;;;;8.13;7.33;;;21.30;99.90;;;;;;5047517;28;20541;-88
2021/09/04 09:30:42;;;;;;;7.73;7.03;;;21.30;99.90;;;;;;5053844;28;20449;-88
2021/09/04 09:33:10;;;;;;;6.83;6.13;;;21.40;99.90;;;;;;5029649;28;20453;-89
2021/09/04 09:35:39;;;;;;;7.10;6.20;;;21.80;99.90;;;;;;5028470;28;20441;-88
2021/09/04 09:38:06;;;;;;;6.13;5.53;;;22.00;99.90;;;;;;5042892;28;20623;-86
2021/09/04 09:40:33;;;;;;;6.80;6.20;;;22.20;99.90;;;;;;5051333;28;20469;-87
2021/09/04 09:42:59;;;;;;;6.50;5.93;;;22.50;99.90;;;;;;5030817;28;20528;-85
2021/09/04 09:45:45;;;;;;;6.13;5.63;;;22.60;98.40;;;;;;5059759;28;20457;-87
2021/09/04 09:48:11;;;;;;;6.03;5.43;;;22.40;99.00;;;;;;5060156;28;20203;-87
2021/09/04 09:50:37;;;;;;;6.30;5.70;;;22.60;99.00;;;;;;5042542;28;21035;-89
2021/09/04 09:53:12;;;;;;;6.60;6.10;;;22.70;99.40;;;;;;5047716;28;20195;-92
2021/09/04 09:55:44;;;;;;;6.40;5.80;;;23.10;98.50;;;;;;5045632;28;20191;-87
2021/09/04 09:58:11;;;;;;;6.77;6.17;;;23.20;98.90;;;;;;5029391;28;20519;-89
2021/09/04 10:00:37;;;;;;;7.30;6.50;;;23.20;98.20;;;;;;5055644;28;20476;-90
2021/09/04 10:03:06;;;;;;;7.10;6.50;;;23.10;98.70;;;;;;5039210;28;20430;-90
2021/09/04 10:05:32;;;;;;;6.50;5.30;;;23.10;98.40;;;;;;5047246;28;20515;-92
2021/09/04 10:07:58;;;;;;;7.00;6.30;;;23.20;99.60;;;;;;5033398;28;20446;-88
2021/09/04 10:10:26;;;;;;;5.93;5.33;;;23.60;97.30;;;;;;5046312;28;20215;-89
2021/09/04 10:12:52;;;;;;;5.10;4.70;;;23.60;98.70;;;;;;5047407;28;20457;-89
2021/09/04 10:15:20;;;;;;;9.23;6.20;;;23.60;96.70;;;;;;5031913;28;20438;-89
2021/09/04 10:17:48;;;;;;;8.00;5.70;;;23.70;98.20;;;;;;5033213;28;20203;-90
2021/09/04 10:20:14;;;;;;;7.43;5.27;;;23.80;98.00;;;;;;5040301;28;20458;-91
2021/09/04 10:22:41;;;;;;;6.57;5.97;;;24.10;97.30;;;;;;5034876;28;20450;-89
2021/09/04 10:25:15;;;;;;;6.60;6.00;;;24.20;96.40;;;;;;5046837;28;20462;-89
2021/09/04 10:27:44;;;;;;;6.80;6.20;;;24.20;97.50;;;;;;5034894;28;20446;-91
2021/09/04 10:30:38;;;;;;;5.70;5.30;;;24.40;97.10;;;;;;5034762;28;20877;-88
2021/09/04 10:33:09;;;;;;;6.47;5.77;;;24.50;94.90;;;;;;5049385;28;20446;-87
2021/09/04 10:35:42;;;;;;;6.83;6.23;;;24.50;95.60;;;;;;5029790;28;20810;-88
2021/09/04 10:38:20;;;;;;;6.23;5.73;;;24.70;97.00;;;;;;5062926;28;21794;-88
2021/09/04 10:40:47;;;;;;;5.67;5.20;;;24.50;95.70;;;;;;5035879;28;20449;-88
2021/09/04 10:43:18;;;;;;;6.10;5.60;;;24.40;94.10;;;;;;5053051;28;20434;-88
2021/09/04 10:45:46;;;;;;;6.07;5.47;;;24.60;95.40;;;;;;5068017;28;21023;-88
2021/09/04 10:48:21;;;;;;;5.90;5.37;;;24.80;93.40;;;;;;5054885;28;20971;-88
2021/09/04 10:51:08;;;;;;;6.20;5.80;;;25.00;96.00;;;;;;5051517;28;20472;-87
2021/09/04 10:53:48;;;;;;;7.20;5.50;;;25.20;92.70;;;;;;5035672;28;20449;-88
2021/09/04 10:56:21;;;;;;;5.97;5.47;;;25.40;94.60;;;;;;5033490;28;20501;-88
2021/09/04 10:58:47;;;;;;;6.83;5.80;;;25.20;93.20;;;;;;5068237;28;20935;-87
2021/09/04 11:01:32;;;;;;;6.37;4.80;;;25.50;94.20;;;;;;5031902;28;20513;-87
2021/09/04 11:03:58;;;;;;;5.60;5.20;;;25.50;93.60;;;;;;5034014;28;20458;-87
2021/09/04 11:06:25;;;;;;;6.67;6.07;;;25.40;93.90;;;;;;5068010;28;20449;-88
2021/09/04 11:08:52;;;;;;;6.47;5.97;;;25.40;94.90;;;;;;5055975;28;20185;-87
2021/09/04 11:11:18;;;;;;;6.53;5.30;;;25.50;92.50;;;;;;5036058;28;20565;-88
2021/09/04 11:13:48;;;;;;;6.13;5.63;;;25.80;92.60;;;;;;5042252;28;21235;-87
2021/09/04 11:16:40;;;;;;;5.90;5.40;;;25.90;92.00;;;;;;5038595;28;20497;-88
2021/09/04 11:19:08;;;;;;;5.07;4.60;;;25.60;92.00;;;;;;5032660;28;20843;-88
2021/09/04 11:21:44;;;;;;;5.00;4.60;;;25.50;91.40;;;;;;5035261;28;20438;-88
2021/09/04 11:24:11;;;;;;;13.03;6.10;;;25.80;92.80;;;;;;5037425;28;20925;-88
2021/09/04 11:26:52;;;;;;;6.40;5.80;;;25.60;91.30;;;;;;5048250;28;20442;-86
2021/09/04 11:29:18;;;;;;;5.00;4.60;;;25.60;91.40;;;;;;5048117;28;20511;-88
2021/09/04 11:31:59;;;;;;;5.87;5.27;;;25.70;92.50;;;;;;5028662;28;21034;-89
2021/09/04 11:34:38;;;;;;;5.50;5.10;;;25.90;91.20;;;;;;5063144;28;20991;-89
2021/09/04 11:37:24;;;;;;;5.23;4.83;;;26.20;91.10;;;;;;5049401;28;20453;-91
2021/09/04 11:39:54;;;;;;;5.80;5.30;;;26.30;90.30;;;;;;5033966;28;21059;-88
2021/09/04 11:42:25;;;;;;;6.23;5.73;;;26.20;88.60;;;;;;5050081;28;20446;-90
2021/09/04 11:44:58;;;;;;;5.57;5.17;;;26.30;86.60;;;;;;5033266;28;20454;-89
2021/09/04 11:47:26;;;;;;;6.03;5.50;;;26.50;83.80;;;;;;5061938;28;20473;-88
2021/09/04 11:49:55;;;;;;;6.57;6.00;;;26.50;84.00;;;;;;5051186;28;20452;-88
2021/09/04 11:52:28;;;;;;;6.30;5.70;;;26.60;90.40;;;;;;5036464;28;20748;-89
2021/09/04 11:55:04;;;;;;;6.20;5.70;;;26.30;89.00;;;;;;5049046;28;20540;-89
2021/09/04 11:57:32;;;;;;;7.23;6.50;;;26.20;91.10;;;;;;5027621;28;20704;-89
2021/09/04 12:00:25;;;;;;;6.00;5.50;;;26.10;89.30;;;;;;5032458;28;20509;-89
2021/09/04 12:03:26;;;;;;;6.37;5.50;;;26.30;90.20;;;;;;5027475;28;20452;-89
2021/09/04 12:05:54;;;;;;;6.00;4.80;;;26.30;90.60;;;;;;5022868;28;20502;-89
2021/09/04 12:08:26;;;;;;;5.90;5.40;;;26.40;88.10;;;;;;5026953;28;20811;-88
2021/09/04 12:10:51;;;;;;;6.20;5.70;;;26.40;90.90;;;;;;5026741;28;20442;-88
2021/09/04 12:13:26;;;;;;;6.10;5.57;;;26.60;88.00;;;;;;5049614;28;20450;-89
2021/09/04 12:15:55;;;;;;;5.60;5.20;;;26.70;91.10;;;;;;5061621;28;20446;-88
2021/09/04 12:18:28;;;;;;;5.27;4.87;;;26.70;85.40;;;;;;5033186;28;20893;-89
2021/09/04 12:20:55;;;;;;;5.20;4.80;;;26.70;87.70;;;;;;5033413;28;20544;-89
2021/09/04 12:23:25;;;;;;;5.30;4.90;;;26.70;84.60;;;;;;5029420;28;20693;-89
2021/09/04 12:26:02;;;;;;;6.90;5.03;;;26.70;83.80;;;;;;5031236;28;21158;-89
2021/09/04 12:28:28;;;;;;;6.03;5.47;;;26.80;84.50;;;;;;5063245;28;20456;-89
2021/09/04 12:31:10;;;;;;;6.30;5.40;;;27.10;79.40;;;;;;5032023;28;20465;-88
2021/09/04 12:33:51;;;;;;;6.80;5.17;;;26.60;79.10;;;;;;5031641;28;20441;-89
2021/09/04 12:36:25;;;;;;;5.27;4.10;;;26.50;83.80;;;;;;5031268;28;20852;-89
2021/09/04 12:38:52;;;;;;;5.30;4.90;;;26.70;88.60;;;;;;5050825;28;20535;-89
2021/09/04 12:41:21;;;;;;;5.00;4.53;;;27.00;78.80;;;;;;5042160;28;20452;-89
2021/09/04 12:43:59;;;;;;;4.63;4.07;;;27.50;75.50;;;;;;5030100;28;20450;-89